Terminal Aerodrome Forecast
Issued by NWS

Home | Current Version | Previous Version | Text Only | Print | Product List | Glossary On
Versions: 1 2 3 4 5 6 7 8 9 10 11 12 13 14 15 16 17 18 19 20
000
FTUS43 KMKX 271143
TAFENW
TAF
KENW 271143Z 2712/2812 26004KT P6SM SKC
     FM271700 20006KT P6SM FEW040
     FM272000 16006KT P6SM SCT040
     FM280000 13005KT P6SM BKN050 PROB30 2800/2802 4SM TSRA OVC025CB
     FM280200 10004KT 5SM -TSRA BR SCT025 BKN045CB
     FM280400 VRB03KT P6SM -SHRA VCTS BKN045CB
     FM280900 05004KT 3SM BR BKN045=

USA.gov is the U.S. government's official web portal to all federal, state and local government web resources and services.